KBYG/BYG METAR and TAF weather

Enter ICAO airport designator
Station Type Date Time Source
KBYG METAR 2018/07/16 23:53 UTC NOAA

KBYG 162353Z AUTO 15005KT 10SM SCT075 SCT100 BKN120 25/13 A3020 RMK AO2 SLP173 60005 T02500133 10278 20183 58006 $


Station Type Date Time Source
KBYG Decoded METAR 2018/07/16 23:53 UTC NOAA

BUFFALO JOHNSON COUNTY AIRPORT , WY, United States (KBYG) 44-23N 106-43W 1497M
Jul 16, 2018 - 07:53 PM EDT / 2018.07.16 2353 UTC
Wind: from the SSE (150 degrees) at 6 MPH (5 KT):0
Visibility: 10 mile(s):0
Sky conditions: mostly cloudy
Temperature: 77.0 F (25.0 C)
Dew Point: 55.9 F (13.3 C)
Relative Humidity: 48%
Pressure (altimeter): 30.2 in. Hg (1022 hPa)
Pressure tendency: 0.02 inches (0.6 hPa) lower than three hours ago
ob: KBYG 162353Z AUTO 15005KT 10SM SCT075 SCT100 BKN120 25/13 A3020 RMK AO2 SLP173 60005 T02500133 10278 20183 58006
cycle: 0

Station Type Date Time Source
KBYG TAF UTC NOAA

Error!


Example: see airport list